Time;durP1;ratioP1;P1;durP2;ratioP2;P2;SDS_P1;SDS_P2;PMS_P1;PMS_P2;Temp;Humidity;BMP_temperature;BMP_pressure;BME280_temperature;BME280_humidity;BME280_pressure;Samples;Min_cycle;Max_cycle;Signal;HPM_P1;HPM_P2
2023/07/28 00:01:07;;;;;;;5.78;3.40;;;;;;;;;;5093710;28;20036;-62
2023/07/28 00:03:35;;;;;;;6.40;3.42;;;;;;;;;;5093531;28;20573;-62
2023/07/28 00:06:03;;;;;;;7.72;3.65;;;;;;;;;;5092462;28;20043;-62
2023/07/28 00:08:30;;;;;;;6.30;3.35;;;;;;;;;;5093592;28;20055;-62
2023/07/28 00:10:58;;;;;;;5.30;3.10;;;;;;;;;;5093389;28;20040;-62
2023/07/28 00:13:25;;;;;;;5.60;3.20;;;;;;;;;;5093603;28;20574;-62
2023/07/28 00:15:53;;;;;;;5.18;3.80;;;;;;;;;;5093509;28;20432;-62
2023/07/28 00:18:21;;;;;;;6.97;4.10;;;;;;;;;;5093479;28;20044;-62
2023/07/28 00:20:48;;;;;;;8.20;4.20;;;;;;;;;;5093395;28;20040;-62
2023/07/28 00:23:16;;;;;;;5.25;3.53;;;;;;;;;;5093233;28;20055;-62
2023/07/28 00:25:43;;;;;;;4.80;3.80;;;;;;;;;;5093405;28;20066;-62
2023/07/28 00:28:11;;;;;;;4.82;3.35;;;;;;;;;;5092578;28;20089;-62
2023/07/28 00:30:38;;;;;;;4.97;3.70;;;;;;;;;;5093218;28;20418;-62
2023/07/28 00:33:06;;;;;;;7.10;3.55;;;;;;;;;;5091890;28;20055;-63
2023/07/28 00:35:33;;;;;;;8.30;3.47;;;;;;;;;;5093343;28;20415;-62
2023/07/28 00:38:01;;;;;;;5.53;3.60;;;;;;;;;;5092938;28;20044;-62
2023/07/28 00:40:29;;;;;;;6.93;3.65;;;;;;;;;;5091753;28;20036;-62
2023/07/28 00:42:56;;;;;;;6.28;3.22;;;;;;;;;;5092769;28;20576;-62
2023/07/28 00:45:24;;;;;;;8.50;3.85;;;;;;;;;;5091697;28;20702;-62
2023/07/28 00:47:53;;;;;;;3.88;3.38;;;;;;;;;;5092898;28;20432;-62
2023/07/28 00:50:20;;;;;;;5.43;3.60;;;;;;;;;;5075040;28;20086;-62
2023/07/28 00:52:49;;;;;;;5.72;3.40;;;;;;;;;;5091339;28;20401;-62
2023/07/28 00:55:16;;;;;;;5.22;3.60;;;;;;;;;;5091547;28;20132;-62
2023/07/28 00:57:44;;;;;;;7.18;3.63;;;;;;;;;;5092781;28;20459;-63
2023/07/28 01:00:12;;;;;;;7.63;3.40;;;;;;;;;;5091382;28;20048;-62
2023/07/28 01:02:39;;;;;;;5.70;3.72;;;;;;;;;;5091446;28;20048;-62
2023/07/28 01:05:07;;;;;;;8.60;3.60;;;;;;;;;;5091477;28;20044;-62
2023/07/28 01:07:48;;;;;;;5.53;3.42;;;;;;;;;;5091299;28;20097;-63
2023/07/28 01:10:18;;;;;;;6.03;4.22;;;;;;;;;;5092521;28;20120;-62
2023/07/28 01:12:46;;;;;;;6.00;3.70;;;;;;;;;;5091412;28;20055;-62
2023/07/28 01:15:14;;;;;;;7.43;4.07;;;;;;;;;;5092700;28;20448;-62
2023/07/28 01:17:43;;;;;;;3.95;3.35;;;;;;;;;;5092585;28;20551;-63
2023/07/28 01:20:11;;;;;;;6.72;4.32;;;;;;;;;;5091179;28;20123;-62
2023/07/28 01:22:49;;;;;;;5.15;3.53;;;;;;;;;;5091343;28;20060;-62
2023/07/28 01:25:20;;;;;;;5.22;3.50;;;;;;;;;;5091137;28;20067;-62
2023/07/28 01:27:48;;;;;;;5.13;3.78;;;;;;;;;;5092433;28;20040;-62
2023/07/28 01:30:15;;;;;;;5.30;3.15;;;;;;;;;;5091150;28;20079;-63
2023/07/28 01:32:43;;;;;;;5.68;3.53;;;;;;;;;;5091213;28;20486;-62
2023/07/28 01:35:11;;;;;;;5.05;3.45;;;;;;;;;;5091030;28;20045;-62
2023/07/28 01:37:38;;;;;;;4.32;3.10;;;;;;;;;;5092853;28;20059;-62
2023/07/28 01:40:06;;;;;;;5.68;3.08;;;;;;;;;;5096335;28;20048;-62
2023/07/28 01:42:33;;;;;;;4.25;3.08;;;;;;;;;;5095091;28;20036;-62
2023/07/28 01:45:01;;;;;;;5.90;3.20;;;;;;;;;;5094831;28;20044;-63
2023/07/28 01:47:29;;;;;;;5.30;2.83;;;;;;;;;;5096371;28;20032;-63
2023/07/28 01:49:56;;;;;;;4.63;2.67;;;;;;;;;;5094817;28;20065;-63
2023/07/28 01:52:24;;;;;;;5.95;2.90;;;;;;;;;;5078291;28;20037;-63
2023/07/28 01:54:51;;;;;;;5.20;3.30;;;;;;;;;;5094597;28;20044;-63
2023/07/28 01:57:19;;;;;;;5.18;3.10;;;;;;;;;;5094744;28;20129;-63
2023/07/28 01:59:47;;;;;;;6.00;3.30;;;;;;;;;;5094635;28;20044;-62
2023/07/28 02:02:14;;;;;;;5.50;3.05;;;;;;;;;;5094781;28;20128;-63
2023/07/28 02:04:41;;;;;;;4.30;3.25;;;;;;;;;;5094629;28;20093;-62
2023/07/28 02:07:09;;;;;;;6.88;3.70;;;;;;;;;;5094461;28;20040;-62
2023/07/28 02:09:37;;;;;;;7.18;3.30;;;;;;;;;;5094629;28;20044;-63
2023/07/28 02:12:04;;;;;;;6.80;3.65;;;;;;;;;;5094592;28;20126;-63
2023/07/28 02:14:31;;;;;;;7.15;3.95;;;;;;;;;;5094551;28;20048;-63
2023/07/28 02:16:59;;;;;;;6.78;4.05;;;;;;;;;;5094495;28;20494;-63
2023/07/28 02:19:27;;;;;;;6.88;4.13;;;;;;;;;;5094349;28;20040;-63
2023/07/28 02:21:54;;;;;;;7.88;4.13;;;;;;;;;;5094378;28;20173;-63
2023/07/28 02:24:22;;;;;;;6.15;3.95;;;;;;;;;;5095517;28;20040;-63
2023/07/28 02:26:49;;;;;;;9.38;4.10;;;;;;;;;;5094339;28;20076;-63
2023/07/28 02:29:17;;;;;;;5.30;3.67;;;;;;;;;;5094256;28;20048;-63
2023/07/28 02:31:45;;;;;;;6.07;3.08;;;;;;;;;;5094231;28;20485;-63
2023/07/28 02:34:12;;;;;;;4.60;3.38;;;;;;;;;;5094248;28;20039;-63
2023/07/28 02:36:40;;;;;;;6.03;3.03;;;;;;;;;;5094091;28;20093;-63
2023/07/28 02:39:08;;;;;;;6.80;3.58;;;;;;;;;;5094090;28;20044;-63
2023/07/28 02:41:35;;;;;;;5.78;3.15;;;;;;;;;;5093975;28;20052;-63
2023/07/28 02:44:03;;;;;;;5.55;3.47;;;;;;;;;;5093837;28;20389;-63
2023/07/28 02:46:30;;;;;;;5.05;3.58;;;;;;;;;;5093988;28;20086;-63
2023/07/28 02:48:57;;;;;;;4.60;3.08;;;;;;;;;;5093613;28;20500;-62
2023/07/28 02:51:25;;;;;;;7.03;3.30;;;;;;;;;;5094546;28;20044;-63
2023/07/28 02:53:52;;;;;;;5.65;3.15;;;;;;;;;;5093827;28;20123;-63
2023/07/28 02:56:20;;;;;;;4.88;3.28;;;;;;;;;;5093280;28;20134;-63
2023/07/28 02:58:49;;;;;;;6.05;3.30;;;;;;;;;;5093339;28;20052;-62
2023/07/28 03:01:17;;;;;;;5.93;3.40;;;;;;;;;;5093421;28;20145;-63
2023/07/28 03:03:45;;;;;;;3.88;3.15;;;;;;;;;;5093484;28;20048;-63
2023/07/28 03:06:13;;;;;;;5.75;3.60;;;;;;;;;;5093456;28;20055;-63
2023/07/28 03:08:42;;;;;;;4.60;3.45;;;;;;;;;;5100192;28;20401;-63
2023/07/28 03:11:35;;;;;;;8.23;3.10;;;;;;;;;;5112797;28;20520;-63
2023/07/28 03:14:03;;;;;;;6.80;3.47;;;;;;;;;;5113656;28;20138;-63
2023/07/28 03:16:30;;;;;;;5.75;3.95;;;;;;;;;;5115042;28;20046;-63
2023/07/28 03:18:58;;;;;;;7.05;3.95;;;;;;;;;;5113592;28;20044;-69
2023/07/28 03:21:25;;;;;;;6.78;4.00;;;;;;;;;;5113843;28;20040;-63
2023/07/28 03:23:53;;;;;;;7.72;3.97;;;;;;;;;;5113461;28;20039;-63
2023/07/28 03:26:20;;;;;;;5.47;3.72;;;;;;;;;;5113397;28;20497;-63
2023/07/28 03:28:48;;;;;;;6.57;3.63;;;;;;;;;;5113944;28;20097;-63
2023/07/28 03:31:15;;;;;;;8.30;3.88;;;;;;;;;;5112587;28;20501;-63
2023/07/28 03:33:43;;;;;;;6.57;4.03;;;;;;;;;;5112479;28;20073;-64
2023/07/28 03:36:10;;;;;;;6.18;3.75;;;;;;;;;;5112788;28;20065;-63
2023/07/28 03:38:38;;;;;;;6.30;3.90;;;;;;;;;;5114827;28;20066;-63
2023/07/28 03:41:07;;;;;;;8.82;4.55;;;;;;;;;;5096627;28;20123;-63
2023/07/28 03:43:35;;;;;;;6.95;4.05;;;;;;;;;;5112964;28;20040;-63
2023/07/28 03:46:02;;;;;;;6.22;3.30;;;;;;;;;;5112936;28;20044;-63
2023/07/28 03:48:33;;;;;;;7.53;3.97;;;;;;;;;;5113099;28;20489;-63
2023/07/28 03:51:02;;;;;;;8.40;4.53;;;;;;;;;;5114322;28;20401;-63
2023/07/28 03:53:35;;;;;;;7.18;3.80;;;;;;;;;;5112895;28;20085;-63
2023/07/28 03:56:03;;;;;;;6.80;3.97;;;;;;;;;;5113071;28;20039;-63
2023/07/28 03:58:31;;;;;;;5.75;3.90;;;;;;;;;;5112735;28;20048;-63
2023/07/28 04:00:58;;;;;;;8.77;4.57;;;;;;;;;;5114002;28;20394;-63
2023/07/28 04:03:26;;;;;;;8.25;3.83;;;;;;;;;;5112775;28;20454;-63
2023/07/28 04:05:53;;;;;;;5.07;4.00;;;;;;;;;;5112882;28;20069;-63
2023/07/28 04:08:21;;;;;;;5.18;3.70;;;;;;;;;;5112749;28;20042;-63
2023/07/28 04:10:48;;;;;;;6.22;3.78;;;;;;;;;;5112646;28;20047;-63
2023/07/28 04:13:16;;;;;;;6.25;3.60;;;;;;;;;;5112663;28;20393;-63
2023/07/28 04:15:43;;;;;;;6.80;3.53;;;;;;;;;;5113784;28;20448;-63
2023/07/28 04:18:11;;;;;;;8.43;3.97;;;;;;;;;;5113896;28;20771;-63
2023/07/28 04:20:38;;;;;;;4.97;3.70;;;;;;;;;;5105581;28;20027;-64
2023/07/28 04:23:06;;;;;;;7.32;4.20;;;;;;;;;;5112029;28;20043;-63
2023/07/28 04:25:36;;;;;;;9.13;4.60;;;;;;;;;;5112258;28;20043;-63
2023/07/28 04:28:04;;;;;;;5.40;4.10;;;;;;;;;;5112442;28;20062;-63
2023/07/28 04:30:32;;;;;;;7.30;4.10;;;;;;;;;;5112420;28;20043;-64
2023/07/28 04:32:59;;;;;;;8.00;4.00;;;;;;;;;;5112414;28;20063;-63
2023/07/28 04:35:33;;;;;;;5.95;3.88;;;;;;;;;;5112292;28;20056;-63
2023/07/28 04:38:12;;;;;;;6.53;3.70;;;;;;;;;;5112089;28;20035;-63
2023/07/28 04:40:48;;;;;;;5.60;3.90;;;;;;;;;;5112272;28;20048;-63
2023/07/28 04:43:20;;;;;;;7.88;4.03;;;;;;;;;;5112172;28;20039;-63
2023/07/28 04:45:53;;;;;;;8.02;4.00;;;;;;;;;;5112047;28;20465;-63
2023/07/28 04:48:22;;;;;;;7.47;3.80;;;;;;;;;;5112228;28;20277;-63
2023/07/28 04:50:50;;;;;;;10.68;3.90;;;;;;;;;;5111966;28;20117;-64
2023/07/28 04:53:45;;;;;;;;;;;;;;;;;;5112092;28;20078;-64
2023/07/28 04:56:22;;;;;;;6.20;3.60;;;;;;;;;;5087998;28;19955;-63
2023/07/28 04:58:49;;;;;;;5.75;3.47;;;;;;;;;;5071053;28;20094;-64
2023/07/28 05:01:17;;;;;;;6.03;4.07;;;;;;;;;;5088128;28;20036;-62
2023/07/28 05:03:46;;;;;;;9.38;3.90;;;;;;;;;;5088085;28;20109;-63
2023/07/28 05:06:22;;;;;;;5.50;3.40;;;;;;;;;;5071328;28;20419;-63
2023/07/28 05:08:49;;;;;;;6.25;3.40;;;;;;;;;;5071129;28;20049;-63
2023/07/28 05:11:23;;;;;;;6.30;3.22;;;;;;;;;;5055750;28;20132;-63
2023/07/28 05:13:51;;;;;;;6.55;3.20;;;;;;;;;;5070825;28;20052;-63
2023/07/28 05:16:19;;;;;;;6.80;3.42;;;;;;;;;;5071176;28;20068;-63
2023/07/28 05:19:16;;;;;;;6.15;3.45;;;;;;;;;;5052772;28;20095;-63
2023/07/28 05:22:01;;;;;;;7.30;3.53;;;;;;;;;;5072945;28;20623;-63
2023/07/28 05:24:44;;;;;;;4.30;3.00;;;;;;;;;;5087933;28;20051;-63
2023/07/28 05:27:12;;;;;;;5.38;3.30;;;;;;;;;;5071154;28;20048;-63
2023/07/28 05:29:43;;;;;;;6.30;3.33;;;;;;;;;;5071097;28;20044;-63
2023/07/28 05:32:11;;;;;;;5.13;3.10;;;;;;;;;;5087998;28;20049;-63
2023/07/28 05:34:51;;;;;;;4.82;2.97;;;;;;;;;;5071130;28;20045;-63
2023/07/28 05:37:18;;;;;;;5.72;3.40;;;;;;;;;;5087727;28;20409;-63
2023/07/28 05:39:46;;;;;;;4.78;2.97;;;;;;;;;;5071022;28;20048;-63
2023/07/28 05:42:13;;;;;;;4.95;2.85;;;;;;;;;;5087839;28;20052;-63
2023/07/28 05:44:41;;;;;;;9.40;3.20;;;;;;;;;;5070847;28;20047;-63
2023/07/28 05:47:09;;;;;;;6.03;3.20;;;;;;;;;;5087810;28;20044;-63
2023/07/28 05:49:36;;;;;;;4.78;3.28;;;;;;;;;;5070923;28;20063;-64
2023/07/28 05:52:04;;;;;;;5.45;2.80;;;;;;;;;;5072068;28;20054;-63
2023/07/28 05:54:33;;;;;;;6.05;2.80;;;;;;;;;;5070971;28;20060;-63
2023/07/28 05:57:00;;;;;;;3.60;3.00;;;;;;;;;;5054201;28;20087;-63
2023/07/28 05:59:29;;;;;;;10.85;3.17;;;;;;;;;;5072058;28;20056;-63
2023/07/28 06:01:56;;;;;;;5.07;2.90;;;;;;;;;;5072045;28;20064;-63
2023/07/28 06:04:35;;;;;;;5.13;2.65;;;;;;;;;;5088082;28;20049;-63
2023/07/28 06:07:05;;;;;;;6.55;3.17;;;;;;;;;;5070532;28;20051;-64
2023/07/28 06:09:33;;;;;;;4.28;3.00;;;;;;;;;;5087387;28;20120;-63
2023/07/28 06:12:00;;;;;;;3.03;2.50;;;;;;;;;;5087397;28;20456;-64
2023/07/28 06:14:28;;;;;;;3.35;2.60;;;;;;;;;;5071720;28;20040;-63
2023/07/28 06:16:56;;;;;;;5.00;2.65;;;;;;;;;;5087397;28;20045;-64
2023/07/28 06:19:28;;;;;;;4.13;2.70;;;;;;;;;;5070613;28;20444;-64
2023/07/28 06:21:55;;;;;;;6.75;2.75;;;;;;;;;;5087241;28;20102;-64
2023/07/28 06:24:23;;;;;;;4.10;2.85;;;;;;;;;;5071649;28;20339;-64
2023/07/28 06:26:50;;;;;;;6.32;2.40;;;;;;;;;;5074072;28;20127;-64
2023/07/28 06:29:18;;;;;;;3.92;2.67;;;;;;;;;;5057407;28;20040;-64
2023/07/28 06:31:45;;;;;;;7.47;2.97;;;;;;;;;;5074248;28;20055;-64
2023/07/28 06:34:13;;;;;;;6.30;2.88;;;;;;;;;;5090779;28;20048;-64
2023/07/28 06:36:40;;;;;;;4.28;2.70;;;;;;;;;;5090800;28;20040;-64
2023/07/28 06:39:08;;;;;;;4.72;2.42;;;;;;;;;;5073888;28;20047;-64
2023/07/28 06:41:36;;;;;;;4.93;2.60;;;;;;;;;;5073801;28;20063;-64
2023/07/28 06:44:08;;;;;;;4.78;2.47;;;;;;;;;;5090724;28;20056;-63
2023/07/28 06:46:35;;;;;;;6.90;2.92;;;;;;;;;;5073874;28;20057;-63
2023/07/28 06:49:03;;;;;;;4.45;2.65;;;;;;;;;;5074962;28;20043;-63
2023/07/28 06:51:31;;;;;;;4.63;2.60;;;;;;;;;;5073666;28;20064;-63
2023/07/28 06:53:59;;;;;;;6.72;2.65;;;;;;;;;;5073708;28;20045;-63
2023/07/28 06:56:26;;;;;;;6.15;2.72;;;;;;;;;;5090341;28;20091;-63
2023/07/28 06:58:54;;;;;;;7.10;2.42;;;;;;;;;;5073341;28;20048;-63
2023/07/28 07:01:40;;;;;;;5.07;2.63;;;;;;;;;;5090215;28;20041;-63
2023/07/28 07:04:07;;;;;;;14.85;3.20;;;;;;;;;;5073429;28;20040;-63
2023/07/28 07:06:35;;;;;;;3.63;2.20;;;;;;;;;;5090025;28;20525;-63
2023/07/28 07:09:03;;;;;;;8.32;2.70;;;;;;;;;;5073300;28;20037;-63
2023/07/28 07:11:31;;;;;;;2.90;2.30;;;;;;;;;;5072929;28;20421;-63
2023/07/28 07:13:59;;;;;;;5.10;2.20;;;;;;;;;;5074399;28;20041;-63
2023/07/28 07:16:27;;;;;;;4.85;2.20;;;;;;;;;;5056727;28;20052;-63
2023/07/28 07:18:55;;;;;;;2.63;2.20;;;;;;;;;;5074427;28;20044;-63
2023/07/28 07:21:22;;;;;;;4.57;2.30;;;;;;;;;;5074445;28;20037;-63
2023/07/28 07:23:50;;;;;;;3.33;2.00;;;;;;;;;;5074213;28;20534;-63
2023/07/28 07:26:26;;;;;;;5.93;2.65;;;;;;;;;;5074019;28;20455;-63
2023/07/28 07:28:54;;;;;;;4.07;2.17;;;;;;;;;;5074161;28;20040;-64
2023/07/28 07:31:21;;;;;;;3.95;2.20;;;;;;;;;;5074067;28;20050;-64
2023/07/28 07:33:49;;;;;;;4.70;2.20;;;;;;;;;;5074088;28;20036;-64
2023/07/28 07:36:17;;;;;;;6.90;2.22;;;;;;;;;;5073868;28;20130;-63
2023/07/28 07:38:51;;;;;;;3.53;1.85;;;;;;;;;;5073946;28;20052;-64
2023/07/28 07:41:22;;;;;;;5.50;2.30;;;;;;;;;;5073846;28;20127;-63
2023/07/28 07:43:51;;;;;;;2.35;2.08;;;;;;;;;;5073910;28;20432;-64
2023/07/28 07:46:22;;;;;;;5.22;2.00;;;;;;;;;;5073778;28;20037;-62
2023/07/28 07:48:49;;;;;;;3.13;2.03;;;;;;;;;;5073882;28;20124;-63
2023/07/28 07:51:17;;;;;;;4.38;2.20;;;;;;;;;;5073845;28;20412;-64
2023/07/28 07:53:45;;;;;;;2.38;1.58;;;;;;;;;;5073649;28;20394;-64
2023/07/28 07:56:12;;;;;;;3.97;2.30;;;;;;;;;;5073602;28;20041;-64
2023/07/28 07:58:40;;;;;;;5.50;2.00;;;;;;;;;;5073351;28;20057;-63
2023/07/28 08:01:07;;;;;;;2.25;1.90;;;;;;;;;;5073487;28;20040;-64
2023/07/28 08:03:38;;;;;;;5.10;1.88;;;;;;;;;;5073516;28;20040;-63
2023/07/28 08:06:05;;;;;;;3.20;1.90;;;;;;;;;;5073440;28;20072;-64
2023/07/28 08:08:33;;;;;;;3.85;1.98;;;;;;;;;;5073388;28;20043;-64
2023/07/28 08:11:00;;;;;;;4.35;1.70;;;;;;;;;;5073449;28;20044;-64
2023/07/28 08:13:28;;;;;;;4.18;2.10;;;;;;;;;;5073089;28;20068;-64
2023/07/28 08:15:56;;;;;;;5.22;1.80;;;;;;;;;;5073279;28;20401;-64
2023/07/28 08:18:23;;;;;;;3.85;1.65;;;;;;;;;;5073150;28;20053;-64
2023/07/28 08:20:51;;;;;;;3.22;2.00;;;;;;;;;;5073024;28;20040;-65
2023/07/28 08:23:18;;;;;;;4.00;1.63;;;;;;;;;;5073030;28;20041;-63
2023/07/28 08:25:46;;;;;;;2.47;1.70;;;;;;;;;;5073329;28;20153;-65
2023/07/28 08:28:14;;;;;;;3.05;1.70;;;;;;;;;;5072944;28;20039;-63
2023/07/28 08:30:41;;;;;;;4.47;1.85;;;;;;;;;;5072966;28;20048;-63
2023/07/28 08:33:09;;;;;;;1.95;1.77;;;;;;;;;;5072852;28;20427;-63
2023/07/28 08:35:36;;;;;;;3.05;1.70;;;;;;;;;;5071533;28;20083;-63
2023/07/28 08:38:04;;;;;;;4.43;1.83;;;;;;;;;;5072673;28;20478;-64
2023/07/28 08:40:34;;;;;;;3.22;1.85;;;;;;;;;;5071621;28;20045;-64
2023/07/28 08:43:01;;;;;;;3.03;1.60;;;;;;;;;;5072712;28;20032;-64
2023/07/28 08:45:29;;;;;;;3.97;1.70;;;;;;;;;;5072748;28;20044;-64
2023/07/28 08:47:57;;;;;;;4.25;2.40;;;;;;;;;;5072085;28;20055;-64
2023/07/28 08:50:24;;;;;;;4.65;1.80;;;;;;;;;;5072634;28;20094;-64
2023/07/28 08:52:52;;;;;;;3.92;1.70;;;;;;;;;;5071724;28;20390;-64
2023/07/28 08:55:19;;;;;;;3.28;2.22;;;;;;;;;;5072671;28;20046;-64
2023/07/28 08:57:47;;;;;;;2.95;1.50;;;;;;;;;;5072732;28;20060;-64
2023/07/28 09:00:17;;;;;;;4.13;1.50;;;;;;;;;;5072557;28;20049;-63
2023/07/28 09:02:45;;;;;;;4.22;1.52;;;;;;;;;;5072398;28;20086;-64
2023/07/28 09:05:19;;;;;;;4.85;2.05;;;;;;;;;;5072515;28;20116;-64
2023/07/28 09:07:47;;;;;;;2.97;1.80;;;;;;;;;;5072556;28;20048;-64
2023/07/28 09:10:15;;;;;;;3.10;1.52;;;;;;;;;;5073104;28;20441;-64
2023/07/28 09:12:49;;;;;;;3.25;1.55;;;;;;;;;;5088043;28;20094;-64
2023/07/28 09:15:17;;;;;;;2.30;1.35;;;;;;;;;;5071068;28;20040;-63
2023/07/28 09:17:45;;;;;;;3.90;1.80;;;;;;;;;;5071041;28;20045;-63
2023/07/28 09:20:16;;;;;;;6.25;1.98;;;;;;;;;;5072444;28;20039;-63
2023/07/28 09:22:44;;;;;;;7.43;1.88;;;;;;;;;;5072445;28;20054;-65
2023/07/28 09:25:16;;;;;;;5.07;1.80;;;;;;;;;;5072269;28;20123;-63
2023/07/28 09:27:51;;;;;;;3.30;1.90;;;;;;;;;;5072284;28;20485;-63
2023/07/28 09:30:19;;;;;;;2.83;1.95;;;;;;;;;;5072132;28;20048;-63
2023/07/28 09:32:48;;;;;;;5.30;2.00;;;;;;;;;;5071067;28;20045;-66
2023/07/28 09:35:16;;;;;;;3.53;2.10;;;;;;;;;;5072222;28;20041;-64
2023/07/28 09:37:45;;;;;;;3.08;1.58;;;;;;;;;;5072254;28;20389;-65
2023/07/28 09:40:14;;;;;;;2.22;1.30;;;;;;;;;;5072356;28;20045;-65
2023/07/28 09:42:42;;;;;;;4.93;1.98;;;;;;;;;;5072166;28;20032;-64
2023/07/28 09:45:10;;;;;;;5.50;1.75;;;;;;;;;;5072142;28;20045;-64
2023/07/28 09:47:59;;;;;;;4.63;1.70;;;;;;;;;;5071065;28;20491;-64
2023/07/28 09:50:28;;;;;;;2.80;1.73;;;;;;;;;;5072186;28;20062;-65
2023/07/28 09:52:58;;;;;;;7.32;2.10;;;;;;;;;;5072085;28;20070;-65
2023/07/28 09:55:25;;;;;;;4.60;2.10;;;;;;;;;;5072257;28;20140;-64
2023/07/28 09:57:54;;;;;;;4.38;1.90;;;;;;;;;;5071833;28;20044;-65
2023/07/28 10:00:23;;;;;;;2.22;1.83;;;;;;;;;;5073814;28;20533;-65
2023/07/28 10:02:51;;;;;;;2.70;1.65;;;;;;;;;;5075696;28;20032;-64
2023/07/28 10:05:18;;;;;;;3.60;1.92;;;;;;;;;;5075760;28;20045;-65
2023/07/28 10:07:47;;;;;;;4.45;1.80;;;;;;;;;;5075799;28;20040;-65
2023/07/28 10:10:16;;;;;;;7.30;2.20;;;;;;;;;;5075592;28;20044;-65
2023/07/28 10:12:48;;;;;;;4.75;1.67;;;;;;;;;;5075663;28;20052;-65
2023/07/28 10:15:19;;;;;;;4.72;1.38;;;;;;;;;;5075579;28;20514;-64
2023/07/28 10:17:49;;;;;;;4.07;1.70;;;;;;;;;;5074391;28;20041;-65
2023/07/28 10:20:28;;;;;;;2.65;1.42;;;;;;;;;;5075488;28;20116;-64
2023/07/28 10:23:03;;;;;;;10.80;2.63;;;;;;;;;;5075459;28;20472;-64
2023/07/28 10:25:34;;;;;;;12.40;2.42;;;;;;;;;;5075255;28;20074;-64
2023/07/28 10:28:02;;;;;;;10.00;1.90;;;;;;;;;;5075263;28;20052;-64
2023/07/28 10:30:36;;;;;;;5.95;1.90;;;;;;;;;;5075380;28;20037;-64
2023/07/28 10:33:03;;;;;;;3.67;1.90;;;;;;;;;;5075314;28;20086;-65
2023/07/28 10:35:33;;;;;;;9.20;2.75;;;;;;;;;;5075202;28;20096;-64
2023/07/28 10:38:20;;;;;;;2.08;1.52;;;;;;;;;;5075066;28;20032;-65
2023/07/28 10:40:51;;;;;;;2.10;1.60;;;;;;;;;;5075125;28;20047;-64
2023/07/28 10:43:18;;;;;;;2.95;1.83;;;;;;;;;;5075082;28;20044;-64
2023/07/28 10:45:46;;;;;;;3.55;1.80;;;;;;;;;;5074886;28;20043;-64
2023/07/28 10:48:13;;;;;;;3.83;1.80;;;;;;;;;;5073814;28;20048;-64
2023/07/28 10:50:42;;;;;;;3.17;1.80;;;;;;;;;;5074976;28;20044;-64
2023/07/28 10:53:11;;;;;;;4.05;1.73;;;;;;;;;;5074845;28;20056;-65
2023/07/28 10:55:39;;;;;;;2.38;1.63;;;;;;;;;;5075032;28;20693;-64
2023/07/28 10:58:07;;;;;;;3.83;2.08;;;;;;;;;;5090346;28;20048;-64
2023/07/28 11:00:34;;;;;;;3.90;1.92;;;;;;;;;;5074805;28;20040;-64
2023/07/28 11:03:02;;;;;;;2.35;1.58;;;;;;;;;;5074758;28;20098;-64
2023/07/28 11:05:31;;;;;;;6.13;3.30;;;;;;;;;;5074532;28;20048;-64
2023/07/28 11:08:00;;;;;;;2.60;1.60;;;;;;;;;;5073644;28;20128;-64
2023/07/28 11:10:31;;;;;;;3.63;1.88;;;;;;;;;;5072626;28;20047;-65
2023/07/28 11:13:01;;;;;;;3.75;1.70;;;;;;;;;;5074795;28;20040;-64
2023/07/28 11:15:42;;;;;;;3.72;1.77;;;;;;;;;;5073537;28;20047;-64
2023/07/28 11:18:09;;;;;;;2.83;1.60;;;;;;;;;;5074413;28;20043;-64
2023/07/28 11:20:37;;;;;;;7.10;2.03;;;;;;;;;;5074404;28;20123;-64
2023/07/28 11:23:05;;;;;;;2.17;1.60;;;;;;;;;;5074365;28;20037;-64
2023/07/28 11:25:33;;;;;;;6.90;1.90;;;;;;;;;;5074293;28;20064;-64
2023/07/28 11:28:03;;;;;;;3.30;1.80;;;;;;;;;;5074552;28;20413;-63
2023/07/28 11:30:31;;;;;;;2.65;1.92;;;;;;;;;;5074109;28;20043;-64
2023/07/28 11:32:58;;;;;;;3.78;1.80;;;;;;;;;;5074112;28;20041;-64
2023/07/28 11:35:26;;;;;;;4.60;1.60;;;;;;;;;;5074153;28;20536;-64
2023/07/28 11:37:54;;;;;;;2.17;1.40;;;;;;;;;;5087386;28;20040;-64
2023/07/28 11:40:22;;;;;;;2.72;2.10;;;;;;;;;;5094308;28;20493;-64
2023/07/28 11:42:52;;;;;;;3.55;1.80;;;;;;;;;;5094101;28;20048;-64
2023/07/28 11:45:22;;;;;;;4.32;1.95;;;;;;;;;;5094089;28;20028;-64
2023/07/28 11:47:56;;;;;;;4.13;2.38;;;;;;;;;;5093987;28;20101;-63
2023/07/28 11:50:24;;;;;;;3.88;1.88;;;;;;;;;;5093774;28;20097;-63
2023/07/28 11:52:52;;;;;;;5.07;2.10;;;;;;;;;;5093928;28;20050;-61
2023/07/28 11:55:21;;;;;;;3.65;2.03;;;;;;;;;;5093398;28;20043;-61
2023/07/28 11:57:48;;;;;;;6.13;2.53;;;;;;;;;;5093749;28;20047;-61
2023/07/28 12:00:16;;;;;;;5.00;1.98;;;;;;;;;;5093743;28;20036;-66
2023/07/28 12:02:45;;;;;;;6.88;2.33;;;;;;;;;;5093678;28;20051;-65
2023/07/28 12:05:14;;;;;;;3.42;1.60;;;;;;;;;;5093672;28;20040;-67
2023/07/28 12:07:49;;;;;;;6.07;1.80;;;;;;;;;;5093420;28;20122;-62
2023/07/28 12:10:17;;;;;;;6.10;2.03;;;;;;;;;;5093529;28;20516;-62
2023/07/28 12:13:05;;;;;;;2.15;1.92;;;;;;;;;;5093506;28;20044;-61
2023/07/28 12:15:40;;;;;;;2.10;1.50;;;;;;;;;;5093402;28;20040;-65
2023/07/28 12:18:16;;;;;;;5.20;1.63;;;;;;;;;;5093218;28;20040;-65
2023/07/28 12:20:47;;;;;;;4.18;2.00;;;;;;;;;;5093147;28;20070;-68
2023/07/28 12:23:16;;;;;;;4.88;2.30;;;;;;;;;;5093300;28;20493;-69
2023/07/28 12:25:47;;;;;;;4.07;1.90;;;;;;;;;;5092919;28;20035;-72
2023/07/28 12:28:15;;;;;;;6.00;1.95;;;;;;;;;;5092988;28;20070;-74
2023/07/28 12:30:49;;;;;;;2.90;1.80;;;;;;;;;;5092941;28;20124;-70
2023/07/28 12:33:17;;;;;;;3.90;1.98;;;;;;;;;;5092798;28;20036;-71
2023/07/28 12:35:47;;;;;;;3.30;2.13;;;;;;;;;;5092516;28;20067;-70
2023/07/28 12:38:17;;;;;;;3.22;2.00;;;;;;;;;;5093208;28;20072;-75
2023/07/28 12:40:47;;;;;;;3.55;1.80;;;;;;;;;;5092903;28;20043;-77
2023/07/28 12:43:17;;;;;;;3.55;2.20;;;;;;;;;;5092574;28;20064;-70
2023/07/28 12:45:48;;;;;;;2.42;1.63;;;;;;;;;;5092452;28;20367;-71
2023/07/28 12:48:19;;;;;;;5.55;2.00;;;;;;;;;;5091245;28;20119;-70
2023/07/28 12:50:48;;;;;;;3.85;1.98;;;;;;;;;;5092392;28;20099;-68
2023/07/28 12:53:17;;;;;;;6.10;1.83;;;;;;;;;;5092741;28;20043;-68
2023/07/28 12:55:50;;;;;;;;;;;;;;;;;;5100819;28;20040;-70
2023/07/28 12:58:20;;;;;;;3.25;2.60;;;;;;;;;;5098780;28;19973;-72
2023/07/28 13:00:51;;;;;;;3.63;1.92;;;;;;;;;;5092758;28;20036;-70
2023/07/28 13:03:22;;;;;;;3.25;1.70;;;;;;;;;;5092644;28;20077;-72
2023/07/28 13:05:51;;;;;;;2.47;1.70;;;;;;;;;;5092527;28;20052;-73
2023/07/28 13:08:18;;;;;;;2.40;1.70;;;;;;;;;;5092651;28;20048;-72
2023/07/28 13:11:06;;;;;;;3.00;2.05;;;;;;;;;;5092741;28;20032;-72
2023/07/28 13:13:36;;;;;;;3.58;2.00;;;;;;;;;;5093028;28;20436;-72
2023/07/28 13:16:06;;;;;;;4.88;2.03;;;;;;;;;;5092477;28;20066;-72
2023/07/28 13:18:39;;;;;;;8.98;2.80;;;;;;;;;;5092621;28;20048;-70
2023/07/28 13:21:07;;;;;;;4.63;2.05;;;;;;;;;;5092557;28;20529;-71
2023/07/28 13:23:34;;;;;;;3.05;1.80;;;;;;;;;;5092472;28;20044;-72
2023/07/28 13:26:04;;;;;;;4.60;2.80;;;;;;;;;;5092283;28;20059;-71
2023/07/28 13:28:31;;;;;;;3.13;2.28;;;;;;;;;;5091888;28;20042;-70
2023/07/28 13:30:59;;;;;;;2.90;2.10;;;;;;;;;;5091215;28;20115;-71
2023/07/28 13:33:27;;;;;;;5.10;1.88;;;;;;;;;;5092127;28;20058;-71
2023/07/28 13:35:54;;;;;;;2.55;1.70;;;;;;;;;;5096569;28;20036;-70
2023/07/28 13:38:21;;;;;;;3.88;2.10;;;;;;;;;;5096568;28;20547;-71
2023/07/28 13:40:49;;;;;;;4.68;2.10;;;;;;;;;;5096485;28;20085;-72
2023/07/28 13:43:17;;;;;;;2.53;1.75;;;;;;;;;;5096469;28;20032;-67
2023/07/28 13:45:44;;;;;;;5.35;4.25;;;;;;;;;;5096620;28;20040;-71
2023/07/28 13:48:12;;;;;;;4.32;1.60;;;;;;;;;;5095977;28;20127;-68
2023/07/28 13:50:42;;;;;;;3.03;1.90;;;;;;;;;;5098038;28;20024;-68
2023/07/28 13:53:21;;;;;;;3.63;1.80;;;;;;;;;;5097568;28;20040;-69
2023/07/28 13:55:52;;;;;;;3.85;1.85;;;;;;;;;;5094944;28;20393;-68
2023/07/28 13:58:22;;;;;;;3.28;1.80;;;;;;;;;;5096309;28;20048;-69
2023/07/28 14:00:50;;;;;;;3.22;1.92;;;;;;;;;;5096450;28;20052;-68
2023/07/28 14:03:17;;;;;;;5.50;1.85;;;;;;;;;;5094722;28;20074;-68
2023/07/28 14:05:46;;;;;;;2.50;1.83;;;;;;;;;;5095897;28;20120;-69
2023/07/28 14:08:14;;;;;;;3.92;2.20;;;;;;;;;;5095995;28;20417;-67
2023/07/28 14:10:45;;;;;;;2.67;2.00;;;;;;;;;;5095979;28;20040;-68
2023/07/28 14:13:13;;;;;;;4.88;3.08;;;;;;;;;;5095869;28;20040;-68
2023/07/28 14:15:40;;;;;;;4.28;2.53;;;;;;;;;;5094415;28;20036;-70
2023/07/28 14:18:08;;;;;;;2.80;2.20;;;;;;;;;;5095598;28;20138;-71
2023/07/28 14:20:36;;;;;;;5.10;2.60;;;;;;;;;;5094784;28;20123;-69
2023/07/28 14:23:20;;;;;;;2.45;2.05;;;;;;;;;;5095404;28;20454;-70
2023/07/28 14:25:48;;;;;;;3.22;1.90;;;;;;;;;;5095207;28;20040;-70
2023/07/28 14:28:15;;;;;;;3.88;1.80;;;;;;;;;;5095551;28;20137;-70
2023/07/28 14:30:46;;;;;;;2.97;2.00;;;;;;;;;;5095064;28;20036;-70
2023/07/28 14:33:15;;;;;;;3.00;1.92;;;;;;;;;;5094968;28;20070;-68
2023/07/28 14:35:43;;;;;;;2.38;1.90;;;;;;;;;;5094713;28;20493;-69
2023/07/28 14:38:11;;;;;;;2.10;1.80;;;;;;;;;;5095201;28;20115;-69
2023/07/28 14:40:39;;;;;;;3.38;2.03;;;;;;;;;;5094346;28;20478;-69
2023/07/28 14:43:07;;;;;;;6.75;2.08;;;;;;;;;;5094857;28;20032;-69
2023/07/28 14:45:35;;;;;;;3.90;2.05;;;;;;;;;;5092415;28;20047;-69
2023/07/28 14:48:03;;;;;;;5.70;1.83;;;;;;;;;;5094912;28;20497;-70
2023/07/28 14:50:30;;;;;;;3.58;2.50;;;;;;;;;;5100092;28;20111;-69
2023/07/28 14:52:59;;;;;;;3.83;2.80;;;;;;;;;;5102802;28;20040;-69
2023/07/28 14:55:27;;;;;;;2.55;2.00;;;;;;;;;;5097337;28;20036;-69